This is the latest recevied weather packets stored in our database for station/object DM5AO-10. If no packets are shown the sender has not sent any weather packets the latest 10 day(s).
| Time | Temp. | Humidity | Pressure | Rain* | Wind** | Luminosity | Snow |
|---|---|---|---|---|---|---|---|
| 1787681426 | 25.56° C | 40% | 1018.9 hPa | - | - | - | - |
| 1787680526 | 25.56° C | 40% | 1018.8 hPa | - | - | - | - |
| 1787679625 | 26.11° C | 38% | 1018.6 hPa | - | - | - | - |
| 1787678778 | 26.11° C | 38% | 1018.6 hPa | - | - | - | - |
| 1787678724 | 26.11° C | 38% | 1018.6 hPa | - | - | - | - |
| 1787677823 | 26.67° C | 37% | 1018.4 hPa | - | - | - | - |
| 1787676922 | 26.67° C | 37% | 1018.5 hPa | - | - | - | - |
| 1787676255 | 26.67° C | 37% | 1018.4 hPa | - | - | - | - |
| 1787676021 | 26.67° C | 37% | 1018.4 hPa | - | - | - | - |
| 1787675167 | 26.67° C | 37% | 1018.5 hPa | - | - | - | - |
| 1787675121 | 26.67° C | 37% | 1018.5 hPa | - | - | - | - |
| 1787674433 | 27.22° C | 36% | 1018.3 hPa | - | - | - | - |
| 1787674260 | 27.22° C | 36% | 1018.3 hPa | - | - | - | - |
| 1787674220 | 27.22° C | 36% | 1018.3 hPa | - | - | - | - |
| 1787673319 | 27.22° C | 37% | 1018.3 hPa | - | - | - | - |
| 1787672418 | 28.33° C | 34% | 1018.2 hPa | - | - | - | - |
| 1787671824 | 28.89° C | 34% | 1018.2 hPa | - | - | - | - |
| 1787671517 | 28.89° C | 34% | 1018.2 hPa | - | - | - | - |
| 1787670728 | 29.44° C | 32% | 1018.2 hPa | - | - | - | - |
| 1787670617 | 29.44° C | 32% | 1018.2 hPa | - | - | - | - |
| 1787669774 | 31.67° C | 28% | 1018.1 hPa | - | - | - | - |
| 1787669716 | 31.67° C | 28% | 1018.1 hPa | - | - | - | - |
| 1787668815 | 40° C | 20% | 1018.2 hPa | - | - | - | - |
| 1787667914 | 28.33° C | 35% | 1018.3 hPa | - | - | - | - |
| 1787667110 | 28.89° C | 35% | 1018 hPa | - | - | - | - |
* Rain since midnight (hover to see other rain measurements)
** Current wind speed in m/s (hover to see current wind gust speed)